sensor_id;sensor_type;location;lat;lon;timestamp;temperature;humidity
16643;DHT22;8435;52.184;5.406;2023-11-22T00:01:53;8.60;99.90
16643;DHT22;8435;52.184;5.406;2023-11-22T00:04:20;8.60;99.90
16643;DHT22;8435;52.184;5.406;2023-11-22T00:06:48;8.50;99.90
16643;DHT22;8435;52.184;5.406;2023-11-22T00:09:15;8.50;99.90
16643;DHT22;8435;52.184;5.406;2023-11-22T00:11:41;8.50;99.90
16643;DHT22;8435;52.184;5.406;2023-11-22T00:14:08;8.50;99.90
16643;DHT22;8435;52.184;5.406;2023-11-22T00:16:35;8.50;99.90
16643;DHT22;8435;52.184;5.406;2023-11-22T00:19:05;8.50;99.90
16643;DHT22;8435;52.184;5.406;2023-11-22T00:21:33;8.50;99.90
16643;DHT22;8435;52.184;5.406;2023-11-22T00:24:01;8.50;99.90
16643;DHT22;8435;52.184;5.406;2023-11-22T00:26:28;8.50;99.90
16643;DHT22;8435;52.184;5.406;2023-11-22T00:28:55;8.50;99.90
16643;DHT22;8435;52.184;5.406;2023-11-22T00:31:22;8.50;99.90
16643;DHT22;8435;52.184;5.406;2023-11-22T00:33:49;8.50;99.90
16643;DHT22;8435;52.184;5.406;2023-11-22T00:36:15;8.50;99.90
16643;DHT22;8435;52.184;5.406;2023-11-22T00:38:42;8.50;99.90
16643;DHT22;8435;52.184;5.406;2023-11-22T00:41:10;8.50;99.90
16643;DHT22;8435;52.184;5.406;2023-11-22T00:43:37;8.50;99.90
16643;DHT22;8435;52.184;5.406;2023-11-22T00:46:04;8.40;99.90
16643;DHT22;8435;52.184;5.406;2023-11-22T00:48:31;8.40;99.90
16643;DHT22;8435;52.184;5.406;2023-11-22T00:50:58;8.30;99.90
16643;DHT22;8435;52.184;5.406;2023-11-22T00:53:25;8.40;99.90
16643;DHT22;8435;52.184;5.406;2023-11-22T00:55:52;8.40;99.90
16643;DHT22;8435;52.184;5.406;2023-11-22T00:58:20;8.40;99.90
16643;DHT22;8435;52.184;5.406;2023-11-22T01:00:46;8.30;99.90
16643;DHT22;8435;52.184;5.406;2023-11-22T01:03:13;8.30;99.90
16643;DHT22;8435;52.184;5.406;2023-11-22T01:05:40;8.20;99.90
16643;DHT22;8435;52.184;5.406;2023-11-22T01:08:08;8.20;99.90
16643;DHT22;8435;52.184;5.406;2023-11-22T01:10:35;8.10;99.90
16643;DHT22;8435;52.184;5.406;2023-11-22T01:13:02;8.10;99.90
16643;DHT22;8435;52.184;5.406;2023-11-22T01:15:31;8.10;99.90
16643;DHT22;8435;52.184;5.406;2023-11-22T01:17:58;8.00;99.90
16643;DHT22;8435;52.184;5.406;2023-11-22T01:20:25;8.00;99.90
16643;DHT22;8435;52.184;5.406;2023-11-22T01:22:52;7.90;99.90
16643;DHT22;8435;52.184;5.406;2023-11-22T01:25:19;7.90;99.90
16643;DHT22;8435;52.184;5.406;2023-11-22T01:27:45;7.90;99.90
16643;DHT22;8435;52.184;5.406;2023-11-22T01:30:13;7.80;99.90
16643;DHT22;8435;52.184;5.406;2023-11-22T01:32:41;7.80;99.90
16643;DHT22;8435;52.184;5.406;2023-11-22T01:35:08;7.80;99.90
16643;DHT22;8435;52.184;5.406;2023-11-22T01:37:35;7.70;99.90
16643;DHT22;8435;52.184;5.406;2023-11-22T01:40:02;7.70;99.90
16643;DHT22;8435;52.184;5.406;2023-11-22T01:42:29;7.70;99.90
16643;DHT22;8435;52.184;5.406;2023-11-22T01:44:56;7.60;99.90
16643;DHT22;8435;52.184;5.406;2023-11-22T01:47:23;7.60;99.90
16643;DHT22;8435;52.184;5.406;2023-11-22T01:49:51;7.60;99.90
16643;DHT22;8435;52.184;5.406;2023-11-22T01:52:18;7.60;99.90
16643;DHT22;8435;52.184;5.406;2023-11-22T01:54:45;7.50;99.90
16643;DHT22;8435;52.184;5.406;2023-11-22T01:57:12;7.50;99.90
16643;DHT22;8435;52.184;5.406;2023-11-22T01:59:39;7.50;99.90
16643;DHT22;8435;52.184;5.406;2023-11-22T02:02:06;7.50;99.90
16643;DHT22;8435;52.184;5.406;2023-11-22T02:04:33;7.40;99.90
16643;DHT22;8435;52.184;5.406;2023-11-22T02:07:02;7.40;99.90
16643;DHT22;8435;52.184;5.406;2023-11-22T02:09:28;7.40;99.90
16643;DHT22;8435;52.184;5.406;2023-11-22T02:11:55;7.30;99.90
16643;DHT22;8435;52.184;5.406;2023-11-22T02:14:23;7.30;99.90
16643;DHT22;8435;52.184;5.406;2023-11-22T02:16:50;7.30;99.90
16643;DHT22;8435;52.184;5.406;2023-11-22T02:19:17;7.30;99.90
16643;DHT22;8435;52.184;5.406;2023-11-22T02:21:44;7.30;99.90
16643;DHT22;8435;52.184;5.406;2023-11-22T02:24:12;7.20;99.90
16643;DHT22;8435;52.184;5.406;2023-11-22T02:26:44;7.20;99.90
16643;DHT22;8435;52.184;5.406;2023-11-22T02:29:11;7.20;99.90
16643;DHT22;8435;52.184;5.406;2023-11-22T02:31:39;7.20;99.90
16643;DHT22;8435;52.184;5.406;2023-11-22T02:34:06;7.20;99.90
16643;DHT22;8435;52.184;5.406;2023-11-22T02:36:33;7.20;99.90
16643;DHT22;8435;52.184;5.406;2023-11-22T02:39:00;7.10;99.90
16643;DHT22;8435;52.184;5.406;2023-11-22T02:41:29;7.10;99.90
16643;DHT22;8435;52.184;5.406;2023-11-22T02:43:56;7.10;99.90
16643;DHT22;8435;52.184;5.406;2023-11-22T02:46:23;7.10;99.90
16643;DHT22;8435;52.184;5.406;2023-11-22T02:48:50;7.00;99.90
16643;DHT22;8435;52.184;5.406;2023-11-22T02:51:16;7.00;99.90
16643;DHT22;8435;52.184;5.406;2023-11-22T02:53:43;7.00;99.90
16643;DHT22;8435;52.184;5.406;2023-11-22T02:56:11;7.00;99.90
16643;DHT22;8435;52.184;5.406;2023-11-22T02:58:40;7.00;99.90
16643;DHT22;8435;52.184;5.406;2023-11-22T03:01:07;7.00;99.90
16643;DHT22;8435;52.184;5.406;2023-11-22T03:03:34;6.90;99.90
16643;DHT22;8435;52.184;5.406;2023-11-22T03:06:01;6.90;99.90
16643;DHT22;8435;52.184;5.406;2023-11-22T03:08:28;6.90;99.90
16643;DHT22;8435;52.184;5.406;2023-11-22T03:10:55;6.90;99.90
16643;DHT22;8435;52.184;5.406;2023-11-22T03:13:21;6.80;99.90
16643;DHT22;8435;52.184;5.406;2023-11-22T03:15:49;6.80;99.90
16643;DHT22;8435;52.184;5.406;2023-11-22T03:18:17;6.80;99.90
16643;DHT22;8435;52.184;5.406;2023-11-22T03:20:44;6.80;99.90
16643;DHT22;8435;52.184;5.406;2023-11-22T03:23:11;6.80;99.90
16643;DHT22;8435;52.184;5.406;2023-11-22T03:25:38;6.80;99.90
16643;DHT22;8435;52.184;5.406;2023-11-22T03:28:05;6.70;99.90
16643;DHT22;8435;52.184;5.406;2023-11-22T03:30:32;6.80;99.90
16643;DHT22;8435;52.184;5.406;2023-11-22T03:33:00;6.70;99.90
16643;DHT22;8435;52.184;5.406;2023-11-22T03:35:26;6.70;99.90
16643;DHT22;8435;52.184;5.406;2023-11-22T03:37:54;6.70;99.90
16643;DHT22;8435;52.184;5.406;2023-11-22T03:40:21;6.70;99.90
16643;DHT22;8435;52.184;5.406;2023-11-22T03:42:48;6.70;99.90
16643;DHT22;8435;52.184;5.406;2023-11-22T03:45:14;6.70;99.90
16643;DHT22;8435;52.184;5.406;2023-11-22T03:47:40;6.70;99.90
16643;DHT22;8435;52.184;5.406;2023-11-22T03:50:09;6.70;99.90
16643;DHT22;8435;52.184;5.406;2023-11-22T03:52:36;6.70;99.90
16643;DHT22;8435;52.184;5.406;2023-11-22T03:55:03;6.70;99.90
16643;DHT22;8435;52.184;5.406;2023-11-22T03:57:30;6.70;99.90
16643;DHT22;8435;52.184;5.406;2023-11-22T03:59:57;6.70;99.90
16643;DHT22;8435;52.184;5.406;2023-11-22T04:02:24;6.70;99.90
16643;DHT22;8435;52.184;5.406;2023-11-22T04:04:53;6.70;99.90
16643;DHT22;8435;52.184;5.406;2023-11-22T04:07:21;6.70;99.90
16643;DHT22;8435;52.184;5.406;2023-11-22T04:09:48;6.70;99.90
16643;DHT22;8435;52.184;5.406;2023-11-22T04:12:15;6.70;99.90
16643;DHT22;8435;52.184;5.406;2023-11-22T04:14:42;6.70;99.90
16643;DHT22;8435;52.184;5.406;2023-11-22T04:17:09;6.70;99.90
16643;DHT22;8435;52.184;5.406;2023-11-22T04:19:36;6.70;99.90
16643;DHT22;8435;52.184;5.406;2023-11-22T04:22:03;6.70;99.90
16643;DHT22;8435;52.184;5.406;2023-11-22T04:24:31;6.60;99.90
16643;DHT22;8435;52.184;5.406;2023-11-22T04:26:58;6.60;99.90
16643;DHT22;8435;52.184;5.406;2023-11-22T04:29:25;6.60;99.90
16643;DHT22;8435;52.184;5.406;2023-11-22T04:31:52;6.60;99.90
16643;DHT22;8435;52.184;5.406;2023-11-22T04:34:18;6.60;99.90
16643;DHT22;8435;52.184;5.406;2023-11-22T04:36:45;6.60;99.90
16643;DHT22;8435;52.184;5.406;2023-11-22T04:39:13;6.60;99.90
16643;DHT22;8435;52.184;5.406;2023-11-22T04:41:42;6.60;99.90
16643;DHT22;8435;52.184;5.406;2023-11-22T04:44:08;6.60;99.90
16643;DHT22;8435;52.184;5.406;2023-11-22T04:46:35;6.60;99.90
16643;DHT22;8435;52.184;5.406;2023-11-22T04:49:03;6.60;99.90
16643;DHT22;8435;52.184;5.406;2023-11-22T04:51:30;6.60;99.90
16643;DHT22;8435;52.184;5.406;2023-11-22T04:53:57;6.50;99.90
16643;DHT22;8435;52.184;5.406;2023-11-22T04:56:24;6.50;99.90
16643;DHT22;8435;52.184;5.406;2023-11-22T04:58:53;6.50;99.90
16643;DHT22;8435;52.184;5.406;2023-11-22T05:01:19;6.50;99.90
16643;DHT22;8435;52.184;5.406;2023-11-22T05:03:46;6.50;99.90
16643;DHT22;8435;52.184;5.406;2023-11-22T05:06:13;6.50;99.90
16643;DHT22;8435;52.184;5.406;2023-11-22T05:08:40;6.50;99.90
16643;DHT22;8435;52.184;5.406;2023-11-22T05:11:07;6.50;99.90
16643;DHT22;8435;52.184;5.406;2023-11-22T05:13:35;6.50;99.90
16643;DHT22;8435;52.184;5.406;2023-11-22T05:16:04;6.50;99.90
16643;DHT22;8435;52.184;5.406;2023-11-22T05:18:30;6.40;99.90
16643;DHT22;8435;52.184;5.406;2023-11-22T05:20:57;6.50;99.90
16643;DHT22;8435;52.184;5.406;2023-11-22T05:23:24;6.50;99.90
16643;DHT22;8435;52.184;5.406;2023-11-22T05:25:51;6.50;99.90
16643;DHT22;8435;52.184;5.406;2023-11-22T05:28:18;6.50;99.90
16643;DHT22;8435;52.184;5.406;2023-11-22T05:30:45;6.50;99.90
16643;DHT22;8435;52.184;5.406;2023-11-22T05:33:13;6.50;99.90
16643;DHT22;8435;52.184;5.406;2023-11-22T05:35:40;6.50;99.90
16643;DHT22;8435;52.184;5.406;2023-11-22T05:38:07;6.50;99.90
16643;DHT22;8435;52.184;5.406;2023-11-22T05:40:34;6.60;99.90
16643;DHT22;8435;52.184;5.406;2023-11-22T05:43:01;6.60;99.90
16643;DHT22;8435;52.184;5.406;2023-11-22T05:45:28;6.60;99.90
16643;DHT22;8435;52.184;5.406;2023-11-22T05:47:55;6.60;99.90
16643;DHT22;8435;52.184;5.406;2023-11-22T05:50:23;6.60;99.90
16643;DHT22;8435;52.184;5.406;2023-11-22T05:52:49;6.60;99.90
16643;DHT22;8435;52.184;5.406;2023-11-22T05:55:17;6.60;99.90
16643;DHT22;8435;52.184;5.406;2023-11-22T05:57:44;6.60;99.90
16643;DHT22;8435;52.184;5.406;2023-11-22T06:00:12;6.60;99.90
16643;DHT22;8435;52.184;5.406;2023-11-22T06:02:39;6.60;99.90
16643;DHT22;8435;52.184;5.406;2023-11-22T06:05:07;6.60;99.90
16643;DHT22;8435;52.184;5.406;2023-11-22T06:07:36;6.60;99.90
16643;DHT22;8435;52.184;5.406;2023-11-22T06:10:03;6.60;99.90
16643;DHT22;8435;52.184;5.406;2023-11-22T06:12:30;6.60;99.90
16643;DHT22;8435;52.184;5.406;2023-11-22T06:14:57;6.60;99.90
16643;DHT22;8435;52.184;5.406;2023-11-22T06:17:24;6.60;99.90
16643;DHT22;8435;52.184;5.406;2023-11-22T06:19:50;6.70;99.90
16643;DHT22;8435;52.184;5.406;2023-11-22T06:22:17;6.60;99.90
16643;DHT22;8435;52.184;5.406;2023-11-22T06:24:46;6.70;99.90
16643;DHT22;8435;52.184;5.406;2023-11-22T06:27:13;6.60;99.90
16643;DHT22;8435;52.184;5.406;2023-11-22T06:29:40;6.60;99.90
16643;DHT22;8435;52.184;5.406;2023-11-22T06:32:09;6.60;99.90
16643;DHT22;8435;52.184;5.406;2023-11-22T06:34:36;6.60;99.90
16643;DHT22;8435;52.184;5.406;2023-11-22T06:37:03;6.60;99.90
16643;DHT22;8435;52.184;5.406;2023-11-22T06:39:32;6.60;99.90
16643;DHT22;8435;52.184;5.406;2023-11-22T06:42:00;6.60;99.90
16643;DHT22;8435;52.184;5.406;2023-11-22T06:44:27;6.60;99.90
16643;DHT22;8435;52.184;5.406;2023-11-22T06:46:54;6.60;99.90
16643;DHT22;8435;52.184;5.406;2023-11-22T06:49:21;6.60;99.90
16643;DHT22;8435;52.184;5.406;2023-11-22T06:51:48;6.60;99.90
16643;DHT22;8435;52.184;5.406;2023-11-22T06:54:15;6.60;99.90
16643;DHT22;8435;52.184;5.406;2023-11-22T06:56:42;6.50;99.90
16643;DHT22;8435;52.184;5.406;2023-11-22T06:59:10;6.60;99.90
16643;DHT22;8435;52.184;5.406;2023-11-22T07:01:41;6.60;99.90
16643;DHT22;8435;52.184;5.406;2023-11-22T07:04:08;6.60;99.90
16643;DHT22;8435;52.184;5.406;2023-11-22T07:06:35;6.50;99.90
16643;DHT22;8435;52.184;5.406;2023-11-22T07:09:03;6.60;99.90
16643;DHT22;8435;52.184;5.406;2023-11-22T07:11:30;6.50;99.90
16643;DHT22;8435;52.184;5.406;2023-11-22T07:13:57;6.50;99.90
16643;DHT22;8435;52.184;5.406;2023-11-22T07:16:25;6.50;99.90
16643;DHT22;8435;52.184;5.406;2023-11-22T07:18:53;6.50;99.90
16643;DHT22;8435;52.184;5.406;2023-11-22T07:21:20;6.60;99.90
16643;DHT22;8435;52.184;5.406;2023-11-22T07:23:47;6.50;99.90
16643;DHT22;8435;52.184;5.406;2023-11-22T07:26:14;6.50;99.90
16643;DHT22;8435;52.184;5.406;2023-11-22T07:28:41;6.50;99.90
16643;DHT22;8435;52.184;5.406;2023-11-22T07:31:08;6.50;99.90
16643;DHT22;8435;52.184;5.406;2023-11-22T07:33:36;6.60;99.90
16643;DHT22;8435;52.184;5.406;2023-11-22T07:36:04;6.60;99.90
16643;DHT22;8435;52.184;5.406;2023-11-22T07:38:31;6.60;99.90
16643;DHT22;8435;52.184;5.406;2023-11-22T07:40:59;6.60;99.90
16643;DHT22;8435;52.184;5.406;2023-11-22T07:43:26;6.50;99.90
16643;DHT22;8435;52.184;5.406;2023-11-22T07:45:53;6.50;99.90
16643;DHT22;8435;52.184;5.406;2023-11-22T07:48:19;6.50;99.90
16643;DHT22;8435;52.184;5.406;2023-11-22T07:50:49;6.50;99.90
16643;DHT22;8435;52.184;5.406;2023-11-22T07:53:21;6.50;99.90
16643;DHT22;8435;52.184;5.406;2023-11-22T07:55:47;6.50;99.90
16643;DHT22;8435;52.184;5.406;2023-11-22T07:58:14;6.60;99.90
16643;DHT22;8435;52.184;5.406;2023-11-22T08:00:41;6.50;99.90
16643;DHT22;8435;52.184;5.406;2023-11-22T08:03:08;6.60;99.90
16643;DHT22;8435;52.184;5.406;2023-11-22T08:05:35;6.60;99.90
16643;DHT22;8435;52.184;5.406;2023-11-22T08:08:07;6.60;99.90
16643;DHT22;8435;52.184;5.406;2023-11-22T08:10:34;6.60;99.90
16643;DHT22;8435;52.184;5.406;2023-11-22T08:13:01;6.70;99.90
16643;DHT22;8435;52.184;5.406;2023-11-22T08:15:28;6.70;99.90
16643;DHT22;8435;52.184;5.406;2023-11-22T08:18:03;6.70;99.90
16643;DHT22;8435;52.184;5.406;2023-11-22T08:20:31;6.80;99.90
16643;DHT22;8435;52.184;5.406;2023-11-22T08:22:58;6.80;99.90
16643;DHT22;8435;52.184;5.406;2023-11-22T08:25:27;6.80;99.90
16643;DHT22;8435;52.184;5.406;2023-11-22T08:27:54;6.90;99.90
16643;DHT22;8435;52.184;5.406;2023-11-22T08:30:25;6.90;99.90
16643;DHT22;8435;52.184;5.406;2023-11-22T08:32:53;6.90;99.90
16643;DHT22;8435;52.184;5.406;2023-11-22T08:35:20;6.90;99.90
16643;DHT22;8435;52.184;5.406;2023-11-22T08:37:48;7.00;99.90
16643;DHT22;8435;52.184;5.406;2023-11-22T08:40:16;7.00;99.90
16643;DHT22;8435;52.184;5.406;2023-11-22T08:42:47;7.00;99.90
16643;DHT22;8435;52.184;5.406;2023-11-22T08:45:14;7.10;99.90
16643;DHT22;8435;52.184;5.406;2023-11-22T08:47:41;7.10;99.90
16643;DHT22;8435;52.184;5.406;2023-11-22T08:50:08;7.10;99.90
16643;DHT22;8435;52.184;5.406;2023-11-22T08:52:37;7.10;99.90
16643;DHT22;8435;52.184;5.406;2023-11-22T08:55:06;7.20;99.90
16643;DHT22;8435;52.184;5.406;2023-11-22T08:57:33;7.20;99.90
16643;DHT22;8435;52.184;5.406;2023-11-22T09:00:02;7.30;99.90
16643;DHT22;8435;52.184;5.406;2023-11-22T09:02:32;7.30;99.90
16643;DHT22;8435;52.184;5.406;2023-11-22T09:04:59;7.30;99.90
16643;DHT22;8435;52.184;5.406;2023-11-22T09:07:26;7.30;99.90
16643;DHT22;8435;52.184;5.406;2023-11-22T09:09:53;7.40;99.90
16643;DHT22;8435;52.184;5.406;2023-11-22T09:12:20;7.40;99.90
16643;DHT22;8435;52.184;5.406;2023-11-22T09:14:47;7.40;99.90
16643;DHT22;8435;52.184;5.406;2023-11-22T09:17:15;7.50;99.90
16643;DHT22;8435;52.184;5.406;2023-11-22T09:19:42;7.50;99.90
16643;DHT22;8435;52.184;5.406;2023-11-22T09:22:09;7.60;99.90
16643;DHT22;8435;52.184;5.406;2023-11-22T09:24:36;7.60;99.90
16643;DHT22;8435;52.184;5.406;2023-11-22T09:27:03;7.60;99.90
16643;DHT22;8435;52.184;5.406;2023-11-22T09:29:31;7.60;99.90
16643;DHT22;8435;52.184;5.406;2023-11-22T09:31:59;7.70;99.90
16643;DHT22;8435;52.184;5.406;2023-11-22T09:34:28;7.70;99.90
16643;DHT22;8435;52.184;5.406;2023-11-22T09:36:56;7.70;99.90
16643;DHT22;8435;52.184;5.406;2023-11-22T09:39:24;7.70;99.90
16643;DHT22;8435;52.184;5.406;2023-11-22T09:41:55;7.80;99.90
16643;DHT22;8435;52.184;5.406;2023-11-22T09:44:22;7.80;99.90
16643;DHT22;8435;52.184;5.406;2023-11-22T09:46:49;7.80;99.90
16643;DHT22;8435;52.184;5.406;2023-11-22T09:49:20;7.90;99.90
16643;DHT22;8435;52.184;5.406;2023-11-22T09:51:51;7.90;99.90
16643;DHT22;8435;52.184;5.406;2023-11-22T09:54:21;8.00;99.90
16643;DHT22;8435;52.184;5.406;2023-11-22T09:56:56;8.00;99.90
16643;DHT22;8435;52.184;5.406;2023-11-22T09:59:23;8.00;99.90
16643;DHT22;8435;52.184;5.406;2023-11-22T10:01:50;8.00;99.90
16643;DHT22;8435;52.184;5.406;2023-11-22T10:04:19;8.10;99.90
16643;DHT22;8435;52.184;5.406;2023-11-22T10:06:46;8.10;99.90
16643;DHT22;8435;52.184;5.406;2023-11-22T10:09:15;8.10;99.90
16643;DHT22;8435;52.184;5.406;2023-11-22T10:11:43;8.20;99.90
16643;DHT22;8435;52.184;5.406;2023-11-22T10:14:10;8.20;99.90
16643;DHT22;8435;52.184;5.406;2023-11-22T10:16:40;8.20;99.90
16643;DHT22;8435;52.184;5.406;2023-11-22T10:19:07;8.20;99.90
16643;DHT22;8435;52.184;5.406;2023-11-22T10:21:39;8.20;99.90
16643;DHT22;8435;52.184;5.406;2023-11-22T10:24:07;8.30;99.90
16643;DHT22;8435;52.184;5.406;2023-11-22T10:26:36;8.30;99.90
16643;DHT22;8435;52.184;5.406;2023-11-22T10:29:06;8.30;99.90
16643;DHT22;8435;52.184;5.406;2023-11-22T10:31:34;8.40;99.90
16643;DHT22;8435;52.184;5.406;2023-11-22T10:34:03;8.40;99.90
16643;DHT22;8435;52.184;5.406;2023-11-22T10:36:29;8.40;99.90
16643;DHT22;8435;52.184;5.406;2023-11-22T10:38:57;8.50;99.90
16643;DHT22;8435;52.184;5.406;2023-11-22T10:41:24;8.50;99.90
16643;DHT22;8435;52.184;5.406;2023-11-22T10:43:53;8.50;99.90
16643;DHT22;8435;52.184;5.406;2023-11-22T10:46:23;8.60;99.90
16643;DHT22;8435;52.184;5.406;2023-11-22T10:48:55;8.60;99.90
16643;DHT22;8435;52.184;5.406;2023-11-22T10:51:26;8.60;99.90
16643;DHT22;8435;52.184;5.406;2023-11-22T10:53:56;8.70;99.90
16643;DHT22;8435;52.184;5.406;2023-11-22T10:56:26;8.70;99.90
16643;DHT22;8435;52.184;5.406;2023-11-22T10:58:56;8.70;99.90
16643;DHT22;8435;52.184;5.406;2023-11-22T11:01:25;8.80;99.90
16643;DHT22;8435;52.184;5.406;2023-11-22T11:03:56;8.80;99.90
16643;DHT22;8435;52.184;5.406;2023-11-22T11:06:32;8.80;99.90
16643;DHT22;8435;52.184;5.406;2023-11-22T11:09:00;8.80;99.90
16643;DHT22;8435;52.184;5.406;2023-11-22T11:11:32;8.90;99.90
16643;DHT22;8435;52.184;5.406;2023-11-22T11:14:00;8.90;99.90
16643;DHT22;8435;52.184;5.406;2023-11-22T11:16:29;8.90;99.90
16643;DHT22;8435;52.184;5.406;2023-11-22T11:18:59;9.00;99.90
16643;DHT22;8435;52.184;5.406;2023-11-22T11:21:26;9.10;99.90
16643;DHT22;8435;52.184;5.406;2023-11-22T11:24:04;9.20;99.90
16643;DHT22;8435;52.184;5.406;2023-11-22T11:26:32;9.20;99.90
16643;DHT22;8435;52.184;5.406;2023-11-22T11:29:02;9.30;99.90
16643;DHT22;8435;52.184;5.406;2023-11-22T11:31:32;9.30;99.90
16643;DHT22;8435;52.184;5.406;2023-11-22T11:34:00;9.30;99.90
16643;DHT22;8435;52.184;5.406;2023-11-22T11:36:29;9.40;99.90
16643;DHT22;8435;52.184;5.406;2023-11-22T11:38:59;9.40;99.90
16643;DHT22;8435;52.184;5.406;2023-11-22T11:41:29;9.40;99.90
16643;DHT22;8435;52.184;5.406;2023-11-22T11:43:58;9.40;99.90
16643;DHT22;8435;52.184;5.406;2023-11-22T11:46:27;9.40;99.90
16643;DHT22;8435;52.184;5.406;2023-11-22T11:48:55;9.40;99.90
16643;DHT22;8435;52.184;5.406;2023-11-22T11:51:23;9.40;99.90
16643;DHT22;8435;52.184;5.406;2023-11-22T11:53:51;9.40;99.90
16643;DHT22;8435;52.184;5.406;2023-11-22T11:56:25;9.40;99.90
16643;DHT22;8435;52.184;5.406;2023-11-22T11:58:56;9.40;99.90
16643;DHT22;8435;52.184;5.406;2023-11-22T12:01:28;9.50;99.90
16643;DHT22;8435;52.184;5.406;2023-11-22T12:03:55;9.40;99.90
16643;DHT22;8435;52.184;5.406;2023-11-22T12:06:22;9.40;99.90
16643;DHT22;8435;52.184;5.406;2023-11-22T12:08:49;9.40;99.90
16643;DHT22;8435;52.184;5.406;2023-11-22T12:11:16;9.40;99.90
16643;DHT22;8435;52.184;5.406;2023-11-22T12:13:43;9.50;99.90
16643;DHT22;8435;52.184;5.406;2023-11-22T12:16:14;9.50;99.90
16643;DHT22;8435;52.184;5.406;2023-11-22T12:18:45;9.50;99.90
16643;DHT22;8435;52.184;5.406;2023-11-22T12:21:13;9.50;99.90
16643;DHT22;8435;52.184;5.406;2023-11-22T12:23:41;9.50;99.90
16643;DHT22;8435;52.184;5.406;2023-11-22T12:26:11;9.50;99.90
16643;DHT22;8435;52.184;5.406;2023-11-22T12:28:39;9.60;99.90
16643;DHT22;8435;52.184;5.406;2023-11-22T12:31:07;9.60;99.90
16643;DHT22;8435;52.184;5.406;2023-11-22T12:33:35;9.60;99.90
16643;DHT22;8435;52.184;5.406;2023-11-22T12:36:04;9.70;99.90
16643;DHT22;8435;52.184;5.406;2023-11-22T12:38:32;9.70;99.90
16643;DHT22;8435;52.184;5.406;2023-11-22T12:40:58;9.80;99.90
16643;DHT22;8435;52.184;5.406;2023-11-22T12:43:25;9.80;99.90
16643;DHT22;8435;52.184;5.406;2023-11-22T12:45:58;9.90;99.90
16643;DHT22;8435;52.184;5.406;2023-11-22T12:48:26;9.90;99.90
16643;DHT22;8435;52.184;5.406;2023-11-22T12:50:55;10.00;99.90
16643;DHT22;8435;52.184;5.406;2023-11-22T12:53:25;10.00;99.90
16643;DHT22;8435;52.184;5.406;2023-11-22T12:55:54;10.10;99.90
16643;DHT22;8435;52.184;5.406;2023-11-22T12:58:23;10.10;99.90
16643;DHT22;8435;52.184;5.406;2023-11-22T13:00:51;10.10;99.90
16643;DHT22;8435;52.184;5.406;2023-11-22T13:03:23;10.10;99.90
16643;DHT22;8435;52.184;5.406;2023-11-22T13:05:51;10.20;99.90
16643;DHT22;8435;52.184;5.406;2023-11-22T13:08:18;10.10;99.90
16643;DHT22;8435;52.184;5.406;2023-11-22T13:10:49;10.10;99.90
16643;DHT22;8435;52.184;5.406;2023-11-22T13:13:19;10.20;99.90
16643;DHT22;8435;52.184;5.406;2023-11-22T13:15:46;10.20;99.90
16643;DHT22;8435;52.184;5.406;2023-11-22T13:18:13;10.20;99.90
16643;DHT22;8435;52.184;5.406;2023-11-22T13:20:40;10.20;99.90
16643;DHT22;8435;52.184;5.406;2023-11-22T13:23:10;10.10;99.90
16643;DHT22;8435;52.184;5.406;2023-11-22T13:25:40;10.10;99.90
16643;DHT22;8435;52.184;5.406;2023-11-22T13:28:09;10.10;99.90
16643;DHT22;8435;52.184;5.406;2023-11-22T13:30:36;10.10;99.90
16643;DHT22;8435;52.184;5.406;2023-11-22T13:33:03;10.10;99.90
16643;DHT22;8435;52.184;5.406;2023-11-22T13:35:30;10.10;99.90
16643;DHT22;8435;52.184;5.406;2023-11-22T13:38:00;10.00;99.90
16643;DHT22;8435;52.184;5.406;2023-11-22T13:40:28;10.00;99.90
16643;DHT22;8435;52.184;5.406;2023-11-22T13:42:56;10.00;99.90
16643;DHT22;8435;52.184;5.406;2023-11-22T13:45:25;10.00;99.90
16643;DHT22;8435;52.184;5.406;2023-11-22T13:47:53;9.90;99.90
16643;DHT22;8435;52.184;5.406;2023-11-22T13:50:23;10.00;99.90
16643;DHT22;8435;52.184;5.406;2023-11-22T13:52:52;9.80;99.90
16643;DHT22;8435;52.184;5.406;2023-11-22T13:55:19;9.90;99.90
16643;DHT22;8435;52.184;5.406;2023-11-22T13:57:49;9.90;99.90
16643;DHT22;8435;52.184;5.406;2023-11-22T14:00:17;9.90;99.90
16643;DHT22;8435;52.184;5.406;2023-11-22T14:02:46;9.90;99.90
16643;DHT22;8435;52.184;5.406;2023-11-22T14:05:17;9.90;99.90
16643;DHT22;8435;52.184;5.406;2023-11-22T14:07:44;9.90;99.90
16643;DHT22;8435;52.184;5.406;2023-11-22T14:10:12;9.90;99.90
16643;DHT22;8435;52.184;5.406;2023-11-22T14:12:42;9.90;99.90
16643;DHT22;8435;52.184;5.406;2023-11-22T14:15:11;9.90;99.90
16643;DHT22;8435;52.184;5.406;2023-11-22T14:17:38;9.90;99.90
16643;DHT22;8435;52.184;5.406;2023-11-22T14:20:08;9.80;99.90
16643;DHT22;8435;52.184;5.406;2023-11-22T14:22:37;9.80;99.90
16643;DHT22;8435;52.184;5.406;2023-11-22T14:25:05;9.80;99.90
16643;DHT22;8435;52.184;5.406;2023-11-22T14:27:33;9.70;99.90
16643;DHT22;8435;52.184;5.406;2023-11-22T14:30:00;9.70;99.90
16643;DHT22;8435;52.184;5.406;2023-11-22T14:32:31;9.70;99.90
16643;DHT22;8435;52.184;5.406;2023-11-22T14:35:00;9.70;99.90
16643;DHT22;8435;52.184;5.406;2023-11-22T14:37:28;9.70;99.90
16643;DHT22;8435;52.184;5.406;2023-11-22T14:39:55;9.70;99.90
16643;DHT22;8435;52.184;5.406;2023-11-22T14:42:22;9.60;99.90
16643;DHT22;8435;52.184;5.406;2023-11-22T14:44:50;9.60;99.90
16643;DHT22;8435;52.184;5.406;2023-11-22T14:47:17;9.60;99.90
16643;DHT22;8435;52.184;5.406;2023-11-22T14:49:48;9.60;99.90
16643;DHT22;8435;52.184;5.406;2023-11-22T14:52:15;9.60;99.90
16643;DHT22;8435;52.184;5.406;2023-11-22T14:54:44;9.50;99.90
16643;DHT22;8435;52.184;5.406;2023-11-22T14:57:11;9.50;99.90
16643;DHT22;8435;52.184;5.406;2023-11-22T14:59:38;9.50;99.90
16643;DHT22;8435;52.184;5.406;2023-11-22T15:02:05;9.40;99.90
16643;DHT22;8435;52.184;5.406;2023-11-22T15:04:34;9.40;99.90
16643;DHT22;8435;52.184;5.406;2023-11-22T15:07:02;9.40;99.90
16643;DHT22;8435;52.184;5.406;2023-11-22T15:09:29;9.40;99.90
16643;DHT22;8435;52.184;5.406;2023-11-22T15:11:59;9.40;99.90
16643;DHT22;8435;52.184;5.406;2023-11-22T15:14:28;9.30;99.90
16643;DHT22;8435;52.184;5.406;2023-11-22T15:16:54;9.30;99.90
16643;DHT22;8435;52.184;5.406;2023-11-22T15:19:21;9.30;99.90
16643;DHT22;8435;52.184;5.406;2023-11-22T15:21:53;9.20;99.90
16643;DHT22;8435;52.184;5.406;2023-11-22T15:24:20;9.20;99.90
16643;DHT22;8435;52.184;5.406;2023-11-22T15:26:47;9.20;99.90
16643;DHT22;8435;52.184;5.406;2023-11-22T15:29:15;9.20;99.90
16643;DHT22;8435;52.184;5.406;2023-11-22T15:31:42;9.20;99.90
16643;DHT22;8435;52.184;5.406;2023-11-22T15:34:10;9.20;99.90
16643;DHT22;8435;52.184;5.406;2023-11-22T15:36:37;9.10;99.90
16643;DHT22;8435;52.184;5.406;2023-11-22T15:39:04;9.10;99.90
16643;DHT22;8435;52.184;5.406;2023-11-22T15:41:37;9.10;99.90
16643;DHT22;8435;52.184;5.406;2023-11-22T15:44:04;9.10;99.90
16643;DHT22;8435;52.184;5.406;2023-11-22T15:46:32;9.10;99.90
16643;DHT22;8435;52.184;5.406;2023-11-22T15:48:59;9.10;99.90
16643;DHT22;8435;52.184;5.406;2023-11-22T15:51:26;9.00;99.90
16643;DHT22;8435;52.184;5.406;2023-11-22T15:53:53;9.00;99.90
16643;DHT22;8435;52.184;5.406;2023-11-22T15:56:20;9.00;99.90
16643;DHT22;8435;52.184;5.406;2023-11-22T15:58:46;9.00;99.90
16643;DHT22;8435;52.184;5.406;2023-11-22T16:01:16;8.90;99.90
16643;DHT22;8435;52.184;5.406;2023-11-22T16:03:44;8.90;99.90